createdAt,value
2022-09-10T00:00:45.680Z,77.57
2022-09-10T00:03:43.712Z,77.10
2022-09-10T00:06:34.429Z,77.38
2022-09-10T00:09:22.758Z,76.85
2022-09-10T00:12:12.654Z,74.00
2022-09-10T00:15:00.872Z,76.10
2022-09-10T00:17:55.008Z,74.40
2022-09-10T00:20:44.016Z,77.45
2022-09-10T00:23:32.304Z,76.28
2022-09-10T00:26:24.810Z,73.88
2022-09-10T00:29:18.521Z,78.05
2022-09-10T00:32:07.542Z,77.43
2022-09-10T00:34:56.130Z,75.80
2022-09-10T00:37:45.141Z,76.95
2022-09-10T00:40:41.128Z,75.55
2022-09-10T00:43:48.058Z,76.90
2022-09-10T00:46:42.825Z,75.60
2022-09-10T00:49:34.853Z,78.43
2022-09-10T00:52:23.582Z,77.40
2022-09-10T00:55:13.574Z,79.50
2022-09-10T00:58:11.454Z,77.50
2022-09-10T01:01:02.528Z,80.15
2022-09-10T01:03:54.137Z,77.38
2022-09-10T01:06:46.352Z,78.30
2022-09-10T01:09:34.850Z,77.65
2022-09-10T01:12:47.243Z,78.30
2022-09-10T01:15:43.986Z,78.32
2022-09-10T01:18:45.102Z,77.38
2022-09-10T01:21:44.649Z,76.45
2022-09-10T01:24:55.745Z,77.28
2022-09-10T01:27:47.696Z,78.03
2022-09-10T01:30:42.613Z,75.95
2022-09-10T01:33:35.633Z,77.15
2022-09-10T01:36:29.984Z,75.00
2022-09-10T01:39:20.984Z,78.35
2022-09-10T01:42:10.441Z,76.65
2022-09-10T01:45:01.221Z,79.32
2022-09-10T01:48:19.207Z,80.07
2022-09-10T01:51:15.185Z,79.65
2022-09-10T01:54:24.897Z,81.28
2022-09-10T01:57:27.941Z,81.07
2022-09-10T02:00:22.797Z,81.78
2022-09-10T02:03:19.837Z,80.82
2022-09-10T02:06:14.312Z,82.40
2022-09-10T02:09:04.564Z,80.60
2022-09-10T02:12:02.387Z,79.63
2022-09-10T02:15:12.816Z,85.32
2022-09-10T02:18:19.671Z,85.80
2022-09-10T02:21:11.606Z,86.78
2022-09-10T02:24:06.074Z,84.78
2022-09-10T02:26:54.824Z,87.07
2022-09-10T02:29:46.491Z,86.32
2022-09-10T02:32:34.955Z,87.20
2022-09-10T02:35:33.954Z,88.20
2022-09-10T02:38:22.861Z,86.13
2022-09-10T02:41:11.306Z,87.68
2022-09-10T02:43:59.531Z,88.35
2022-09-10T02:46:47.862Z,86.03
2022-09-10T02:49:36.264Z,87.20
2022-09-10T02:52:25.984Z,86.43
2022-09-10T02:55:15.653Z,85.50
2022-09-10T02:58:04.449Z,86.93
2022-09-10T03:00:53.507Z,85.05
2022-09-10T03:03:51.370Z,86.43
2022-09-10T03:06:40.989Z,88.07
2022-09-10T03:09:36.924Z,87.75
2022-09-10T03:12:26.742Z,88.85
2022-09-10T03:15:22.958Z,88.30
2022-09-10T03:18:11.540Z,88.40
2022-09-10T03:21:10.894Z,86.78
2022-09-10T03:23:59.119Z,87.60
2022-09-10T03:26:52.247Z,87.10
2022-09-10T03:29:42.230Z,88.55
2022-09-10T03:32:37.356Z,88.38
2022-09-10T03:35:27.588Z,90.15
2022-09-10T03:38:15.890Z,88.50
2022-09-10T03:41:04.903Z,88.75
2022-09-10T03:44:00.876Z,89.35
2022-09-10T03:46:51.200Z,89.20
2022-09-10T03:49:40.677Z,88.82
2022-09-10T03:52:30.153Z,87.43
2022-09-10T03:55:19.055Z,90.15
2022-09-10T03:58:07.709Z,88.80
2022-09-10T04:01:03.610Z,95.30
2022-09-10T04:03:56.597Z,92.07
2022-09-10T04:06:46.869Z,88.68
2022-09-10T04:09:45.481Z,91.97
2022-09-10T04:12:33.840Z,90.80
2022-09-10T04:15:31.122Z,89.40
2022-09-10T04:18:20.899Z,86.75
2022-09-10T04:21:09.283Z,82.18
2022-09-10T04:24:05.516Z,84.82
2022-09-10T04:26:53.781Z,84.63
2022-09-10T04:29:49.953Z,85.65
2022-09-10T04:32:39.538Z,85.55
2022-09-10T04:35:35.467Z,89.57
2022-09-10T04:38:27.021Z,87.40
2022-09-10T04:41:21.545Z,86.07
2022-09-10T04:44:10.084Z,86.30
2022-09-10T04:47:04.703Z,83.47
2022-09-10T04:49:54.868Z,85.63
2022-09-10T04:52:44.843Z,85.78
2022-09-10T04:55:33.548Z,86.70
2022-09-10T04:58:22.432Z,85.65
2022-09-10T05:01:11.870Z,86.30
2022-09-10T05:04:00.582Z,88.15
2022-09-10T05:06:50.338Z,93.93
2022-09-10T05:09:40.155Z,92.32
2022-09-10T05:12:38.538Z,89.90
2022-09-10T05:15:26.870Z,90.15
2022-09-10T05:18:24.219Z,89.00
2022-09-10T05:21:12.578Z,90.47
2022-09-10T05:24:12.422Z,90.45
2022-09-10T05:27:02.261Z,89.15
2022-09-10T05:29:59.375Z,90.30
2022-09-10T05:32:47.815Z,90.43
2022-09-10T05:35:47.815Z,89.97
2022-09-10T05:38:39.844Z,88.32
2022-09-10T05:41:29.239Z,91.65
2022-09-10T05:44:25.797Z,88.82
2022-09-10T05:47:14.118Z,89.53
2022-09-10T05:50:08.883Z,89.22
2022-09-10T05:53:00.899Z,87.68
2022-09-10T05:55:50.988Z,88.00
2022-09-10T05:58:39.967Z,87.13
2022-09-10T06:01:32.136Z,85.80
2022-09-10T06:04:22.044Z,88.32
2022-09-10T06:07:10.842Z,89.60
2022-09-10T06:10:00.297Z,87.75
2022-09-10T06:12:58.593Z,87.45
2022-09-10T06:15:56.169Z,89.22
2022-09-10T06:18:46.444Z,87.13
2022-09-10T06:21:37.724Z,88.32
2022-09-10T06:24:26.057Z,88.05
2022-09-10T06:27:17.424Z,87.07
2022-09-10T06:30:12.519Z,85.85
2022-09-10T06:33:04.202Z,85.25
2022-09-10T06:36:01.458Z,83.90
2022-09-10T06:38:50.216Z,84.65
2022-09-10T06:41:38.698Z,83.72
2022-09-10T06:44:31.847Z,82.20
2022-09-10T06:50:51.608Z,80.10
2022-09-10T06:53:42.788Z,83.30
2022-09-10T06:56:33.808Z,80.32
2022-09-10T06:59:24.369Z,80.28
2022-09-10T07:02:12.942Z,78.63
2022-09-10T07:05:01.909Z,85.82
2022-09-10T07:07:51.519Z,74.40
2022-09-10T07:10:42.060Z,70.10
2022-09-10T07:13:30.882Z,72.15
2022-09-10T07:16:30.286Z,69.82
2022-09-10T07:19:18.963Z,65.78
2022-09-10T07:22:08.918Z,64.38
2022-09-10T07:25:07.239Z,61.10
2022-09-10T07:28:15.476Z,62.67
2022-09-10T07:31:15.970Z,62.85
2022-09-10T07:34:06.386Z,64.65
2022-09-10T07:37:01.980Z,61.10
2022-09-10T07:39:51.124Z,64.05
2022-09-10T07:42:45.771Z,56.05
2022-09-10T07:45:35.456Z,53.13
2022-09-10T07:48:27.288Z,53.58
2022-09-10T07:51:18.332Z,53.63
2022-09-10T07:54:07.909Z,53.47
2022-09-10T07:57:00.184Z,53.55
2022-09-10T07:59:49.245Z,55.63
2022-09-10T08:02:42.889Z,58.10
2022-09-10T08:05:34.196Z,57.22
2022-09-10T08:08:34.124Z,55.85
2022-09-10T08:11:23.203Z,55.55
2022-09-10T08:14:14.477Z,56.63
2022-09-10T08:17:06.023Z,54.72
2022-09-10T08:20:01.405Z,53.17
2022-09-10T08:22:50.198Z,51.60
2022-09-10T08:25:38.675Z,52.92
2022-09-10T08:28:29.759Z,51.60
2022-09-10T08:31:18.282Z,54.08
2022-09-10T08:34:14.278Z,49.25
2022-09-10T08:37:08.024Z,48.50
2022-09-10T08:39:58.319Z,46.47
2022-09-10T08:42:51.363Z,43.03
2022-09-10T08:45:43.571Z,43.28
2022-09-10T08:48:35.859Z,44.08
2022-09-10T08:51:30.334Z,45.08
2022-09-10T08:54:25.443Z,47.55
2022-09-10T08:57:24.673Z,48.67
2022-09-10T09:00:16.565Z,50.60
2022-09-10T09:03:13.939Z,48.50
2022-09-10T09:06:06.345Z,50.65
2022-09-10T09:09:03.060Z,50.70
2022-09-10T09:12:07.365Z,51.88
2022-09-10T09:15:09.344Z,50.25
2022-09-10T09:18:14.678Z,48.10
2022-09-10T09:21:09.753Z,44.90
2022-09-10T09:24:14.261Z,41.90
2022-09-10T09:27:16.896Z,42.15
2022-09-10T09:30:09.165Z,41.58
2022-09-10T09:33:17.543Z,38.25
2022-09-10T09:36:08.699Z,35.88
2022-09-10T09:38:57.498Z,35.35
2022-09-10T09:41:56.253Z,37.30
2022-09-10T09:44:56.857Z,39.17
2022-09-10T09:47:46.983Z,38.53
2022-09-10T09:50:39.359Z,37.67
2022-09-10T09:53:31.081Z,40.25
2022-09-10T09:56:25.029Z,41.03
2022-09-10T09:59:26.885Z,40.78
2022-09-10T10:02:19.636Z,44.30
2022-09-10T10:05:24.770Z,46.25
2022-09-10T10:08:31.167Z,46.45
2022-09-10T10:11:22.436Z,45.75
2022-09-10T10:14:41.744Z,40.08
2022-09-10T10:17:35.927Z,38.45
2022-09-10T10:20:37.175Z,36.45
2022-09-10T10:23:33.845Z,35.45
2022-09-10T10:26:33.761Z,32.47
2022-09-10T10:29:22.458Z,27.13
2022-09-10T10:32:19.847Z,24.98
2022-09-10T10:35:32.199Z,21.73
2022-09-10T10:38:35.365Z,17.80
2022-09-10T10:42:04.514Z,15.35
2022-09-10T10:45:31.231Z,14.50
2022-09-10T10:48:30.366Z,14.55
2022-09-10T10:51:32.033Z,15.20
2022-09-10T10:54:37.625Z,16.77
2022-09-10T10:57:34.648Z,16.33
2022-09-10T11:00:22.969Z,15.98
2022-09-10T11:03:16.117Z,15.00
2022-09-10T11:06:09.418Z,13.40
2022-09-10T11:09:04.235Z,12.52
2022-09-10T11:11:57.482Z,14.25
2022-09-10T11:14:51.354Z,11.80
2022-09-10T11:17:43.720Z,11.52
2022-09-10T11:20:38.070Z,12.20
2022-09-10T11:23:33.027Z,11.18
2022-09-10T11:26:27.694Z,10.55
2022-09-10T11:29:35.338Z,9.55
2022-09-10T11:32:30.336Z,8.05
2022-09-10T11:35:23.960Z,6.97
2022-09-10T11:38:20.730Z,6.28
2022-09-10T11:41:17.234Z,6.70
2022-09-10T11:44:19.207Z,6.93
2022-09-10T11:47:15.512Z,7.93
2022-09-10T11:50:11.088Z,8.13
2022-09-10T11:53:00.319Z,7.88
2022-09-10T11:56:21.470Z,7.47
2022-09-10T11:59:31.475Z,6.82
2022-09-10T12:02:58.609Z,7.25
2022-09-10T12:05:56.609Z,7.43
2022-09-10T12:09:01.153Z,7.88
2022-09-10T12:12:01.101Z,7.88
2022-09-10T12:14:51.084Z,8.30
2022-09-10T12:17:44.551Z,7.90
2022-09-10T12:20:36.894Z,6.90
2022-09-10T12:23:28.801Z,7.45
2022-09-10T12:26:20.675Z,7.85
2022-09-10T12:29:27.844Z,7.18
2022-09-10T12:32:32.409Z,7.10
2022-09-10T12:35:44.755Z,7.63
2022-09-10T12:38:51.209Z,6.53
2022-09-10T12:42:00.039Z,5.57
2022-09-10T12:44:48.737Z,6.25
2022-09-10T12:47:46.854Z,4.95
2022-09-10T12:50:46.229Z,3.78
2022-09-10T12:53:52.047Z,3.92
2022-09-10T12:56:50.917Z,2.90
2022-09-10T13:00:03.013Z,3.30
2022-09-10T13:02:58.398Z,3.80
2022-09-10T13:05:51.980Z,4.00
2022-09-10T13:08:43.717Z,3.35
2022-09-10T13:11:36.968Z,4.30
2022-09-10T13:14:30.583Z,4.38
2022-09-10T13:17:38.259Z,4.47
2022-09-10T13:20:34.693Z,4.93
2022-09-10T13:23:25.094Z,4.88
2022-09-10T13:26:52.361Z,5.47
2022-09-10T13:29:44.663Z,6.53
2022-09-10T13:32:42.759Z,7.07
2022-09-10T13:36:06.335Z,9.00
2022-09-10T13:39:25.179Z,10.90
2022-09-10T13:42:47.357Z,9.30
2022-09-10T13:45:39.725Z,6.80
2022-09-10T13:48:31.032Z,6.15
2022-09-10T13:51:36.777Z,6.93
2022-09-10T13:54:34.511Z,7.80
2022-09-10T13:57:27.662Z,7.60
2022-09-10T14:00:23.785Z,7.43
2022-09-10T14:03:17.472Z,7.43
2022-09-10T14:06:09.077Z,6.90
2022-09-10T14:09:03.873Z,6.93
2022-09-10T14:11:52.406Z,7.50
2022-09-10T14:14:54.708Z,9.40
2022-09-10T14:17:51.021Z,9.20
2022-09-10T14:20:42.772Z,8.25
2022-09-10T14:23:31.498Z,5.55
2022-09-10T14:26:33.884Z,4.28
2022-09-10T14:29:25.661Z,12.15
2022-09-10T14:32:28.672Z,4.13
2022-09-10T14:35:36.327Z,3.08
2022-09-10T14:38:26.925Z,3.00
2022-09-10T14:41:20.491Z,2.92
2022-09-10T14:44:29.806Z,2.88
2022-09-10T14:47:29.974Z,3.20
2022-09-10T14:50:31.892Z,3.60
2022-09-10T14:53:20.302Z,3.08
2022-09-10T14:56:19.652Z,3.70
2022-09-10T14:59:15.702Z,3.80
2022-09-10T15:02:15.839Z,3.42
2022-09-10T15:05:04.183Z,3.67
2022-09-10T15:08:01.638Z,3.35
2022-09-10T15:10:50.833Z,4.18
2022-09-10T15:13:49.321Z,3.50
2022-09-10T15:16:37.642Z,4.30
2022-09-10T15:19:28.036Z,4.40
2022-09-10T15:22:24.820Z,3.50
2022-09-10T15:25:29.402Z,4.50
2022-09-10T15:28:17.764Z,4.10
2022-09-10T15:31:06.752Z,5.10
2022-09-10T15:34:01.104Z,5.35
2022-09-10T15:36:51.261Z,6.00
2022-09-10T15:39:39.595Z,6.47
2022-09-10T15:42:27.976Z,7.18
2022-09-10T15:45:16.283Z,8.00
2022-09-10T15:48:05.045Z,7.47
2022-09-10T15:50:53.446Z,8.07
2022-09-10T15:53:44.238Z,9.63
2022-09-10T15:56:32.721Z,8.65
2022-09-10T15:59:22.301Z,8.90
2022-09-10T16:02:13.308Z,8.68
2022-09-10T16:05:02.248Z,9.05
2022-09-10T16:07:50.625Z,9.68
2022-09-10T16:10:41.606Z,9.40
2022-09-10T16:13:29.958Z,9.40
2022-09-10T16:16:20.422Z,9.32
2022-09-10T16:19:09.914Z,8.57
2022-09-10T16:21:58.237Z,11.40
2022-09-10T16:24:46.572Z,8.88
2022-09-10T16:27:37.933Z,9.05
2022-09-10T16:30:29.468Z,8.65
2022-09-10T16:33:17.757Z,12.57
2022-09-10T16:36:06.731Z,10.25
2022-09-10T16:38:57.100Z,9.95
2022-09-10T16:41:46.710Z,10.68
2022-09-10T16:44:36.594Z,11.75
2022-09-10T16:47:25.624Z,12.60
2022-09-10T16:50:14.442Z,13.50
2022-09-10T16:53:02.757Z,12.70
2022-09-10T16:55:51.504Z,12.93
2022-09-10T16:58:40.076Z,13.40
2022-09-10T17:01:31.230Z,13.20
2022-09-10T17:04:24.880Z,14.38
2022-09-10T17:07:14.653Z,12.93
2022-09-10T17:10:03.028Z,15.35
2022-09-10T17:12:57.855Z,16.90
2022-09-10T17:15:46.513Z,15.77
2022-09-10T17:22:06.301Z,18.65
2022-09-10T17:24:54.662Z,18.27
2022-09-10T17:27:43.041Z,21.88
2022-09-10T17:30:31.866Z,21.75
2022-09-10T17:33:21.941Z,22.80
2022-09-10T17:36:12.700Z,24.98
2022-09-10T17:39:02.527Z,24.52
2022-09-10T17:41:55.285Z,26.23
2022-09-10T17:44:44.413Z,26.45
2022-09-10T17:47:33.211Z,14.65
2022-09-10T17:50:21.579Z,14.73
2022-09-10T17:53:09.875Z,14.00
2022-09-10T17:56:05.233Z,13.93
2022-09-10T17:58:57.251Z,14.93
2022-09-10T18:01:45.677Z,16.17
2022-09-10T18:04:34.241Z,17.88
2022-09-10T18:07:22.706Z,19.87
2022-09-10T18:10:11.949Z,22.17
2022-09-10T18:13:02.242Z,23.80
2022-09-10T18:15:50.640Z,25.37
2022-09-10T18:18:39.914Z,26.83
2022-09-10T18:21:31.223Z,27.13
2022-09-10T18:24:22.621Z,28.37
2022-09-10T18:27:11.014Z,31.13
2022-09-10T18:30:01.408Z,33.13
2022-09-10T18:32:52.122Z,34.50
2022-09-10T18:35:40.692Z,36.87
2022-09-10T18:38:29.623Z,38.20
2022-09-10T18:41:23.279Z,40.00
2022-09-10T18:44:16.254Z,40.37
2022-09-10T18:47:17.665Z,42.30
2022-09-10T18:50:12.559Z,43.13
2022-09-10T18:53:01.398Z,43.50
2022-09-10T18:55:49.977Z,44.40
2022-09-10T18:58:38.939Z,45.27
2022-09-10T19:01:31.125Z,45.67
2022-09-10T19:04:23.813Z,45.63
2022-09-10T19:07:12.445Z,48.30
2022-09-10T19:10:04.159Z,48.17
2022-09-10T19:12:52.749Z,49.70
2022-09-10T19:15:41.303Z,49.87
2022-09-10T19:18:30.672Z,51.13
2022-09-10T19:21:21.267Z,51.93
2022-09-10T19:24:10.019Z,51.67
2022-09-10T19:26:58.819Z,52.80
2022-09-10T19:29:49.864Z,52.43
2022-09-10T19:32:38.516Z,52.70
2022-09-10T19:35:27.197Z,53.57
2022-09-10T19:38:36.608Z,52.07
2022-09-10T19:41:25.632Z,52.90
2022-09-10T19:44:16.008Z,51.57
2022-09-10T19:47:04.488Z,52.07
2022-09-10T19:49:53.100Z,52.30
2022-09-10T19:52:41.915Z,52.73
2022-09-10T19:55:31.663Z,53.23
2022-09-10T19:58:21.289Z,54.20
2022-09-10T20:01:17.257Z,54.80
2022-09-10T20:04:08.995Z,55.07
2022-09-10T20:06:58.697Z,55.10
2022-09-10T20:09:47.382Z,55.17
2022-09-10T20:12:37.232Z,55.67
2022-09-10T20:15:25.557Z,56.07
2022-09-10T20:18:13.904Z,56.70
2022-09-10T20:21:12.196Z,58.33
2022-09-10T20:24:00.548Z,58.73
2022-09-10T20:26:49.135Z,57.97
2022-09-10T20:29:38.891Z,58.00
2022-09-10T20:32:27.235Z,58.57
2022-09-10T20:35:15.834Z,58.83
2022-09-10T20:38:04.158Z,58.93
2022-09-10T20:40:52.844Z,57.50
2022-09-10T20:43:41.346Z,57.87
2022-09-10T20:46:32.255Z,57.47
2022-09-10T20:49:21.486Z,57.80
2022-09-10T20:52:09.847Z,57.00
2022-09-10T20:54:58.495Z,57.10
2022-09-10T20:57:47.109Z,56.17
2022-09-10T21:00:35.936Z,56.00
2022-09-10T21:03:26.150Z,55.53
2022-09-10T21:06:16.458Z,55.93
2022-09-10T21:09:05.380Z,54.40
2022-09-10T21:11:54.112Z,54.43
2022-09-10T21:14:42.549Z,54.20
2022-09-10T21:17:31.104Z,53.53
2022-09-10T21:20:22.143Z,52.23
2022-09-10T21:23:10.714Z,52.93
2022-09-10T21:25:59.406Z,53.30
2022-09-10T21:28:48.604Z,54.97
2022-09-10T21:31:37.058Z,55.80
2022-09-10T21:34:25.521Z,56.00
2022-09-10T21:37:15.303Z,57.20
2022-09-10T21:40:05.028Z,57.47
2022-09-10T21:42:53.388Z,58.30
2022-09-10T21:45:41.913Z,57.47
2022-09-10T21:48:31.254Z,59.23
2022-09-10T21:51:21.645Z,58.70
2022-09-10T21:54:15.174Z,61.30
2022-09-10T21:57:04.253Z,60.73
2022-09-10T21:59:53.405Z,61.63
2022-09-10T22:02:42.261Z,60.27
2022-09-10T22:05:30.637Z,61.10
2022-09-10T22:08:19.401Z,61.43
2022-09-10T22:11:14.327Z,61.20
2022-09-10T22:14:05.420Z,61.90
2022-09-10T22:16:54.277Z,63.00
2022-09-10T22:19:44.167Z,62.57
2022-09-10T22:22:32.551Z,63.67
2022-09-10T22:25:20.962Z,62.33
2022-09-10T22:28:11.020Z,62.40
2022-09-10T22:30:59.386Z,62.80
2022-09-10T22:33:54.304Z,62.07
2022-09-10T22:36:44.787Z,63.33
2022-09-10T22:39:36.901Z,63.57
2022-09-10T22:42:26.353Z,64.43
2022-09-10T22:45:17.485Z,64.17
2022-09-10T22:48:06.077Z,65.03
2022-09-10T22:50:54.589Z,64.47
2022-09-10T22:53:44.497Z,64.27
2022-09-10T22:56:33.231Z,65.23
2022-09-10T22:59:21.553Z,63.80
2022-09-10T23:02:11.527Z,63.27
2022-09-10T23:05:00.108Z,62.57
2022-09-10T23:07:50.489Z,62.20
2022-09-10T23:10:38.935Z,60.50
2022-09-10T23:13:27.607Z,61.27
2022-09-10T23:16:17.849Z,60.47
2022-09-10T23:19:10.752Z,60.77
2022-09-10T23:21:59.190Z,61.50
2022-09-10T23:24:47.744Z,62.10
2022-09-10T23:27:36.197Z,61.90
2022-09-10T23:30:24.556Z,62.30
2022-09-10T23:33:13.423Z,63.23
2022-09-10T23:36:04.418Z,62.97
2022-09-10T23:38:53.018Z,64.07
2022-09-10T23:41:41.797Z,64.43
2022-09-10T23:44:30.336Z,63.30
2022-09-10T23:47:18.764Z,64.10
2022-09-10T23:50:08.054Z,65.43
2022-09-10T23:52:58.007Z,64.90
2022-09-10T23:55:47.072Z,64.57
2022-09-10T23:58:35.588Z,65.60
